createdAt,value
2018-06-03T00:00:16.136Z,30.27
2018-06-03T00:02:45.021Z,31.20
2018-06-03T00:05:14.577Z,32.57
2018-06-03T00:07:42.826Z,29.63
2018-06-03T00:10:11.618Z,24.50
2018-06-03T00:12:39.784Z,26.17
2018-06-03T00:15:07.964Z,30.43
2018-06-03T00:17:36.798Z,25.87
2018-06-03T00:20:04.896Z,24.90
2018-06-03T00:22:34.044Z,30.27
2018-06-03T00:25:02.210Z,25.60
2018-06-03T00:27:30.368Z,25.80
2018-06-03T00:29:58.464Z,35.70
2018-06-03T00:32:26.563Z,30.13
2018-06-03T00:34:54.680Z,25.07
2018-06-03T00:37:23.536Z,27.30
2018-06-03T00:39:51.682Z,36.50
2018-06-03T00:42:19.873Z,29.40
2018-06-03T00:44:47.951Z,26.80
2018-06-03T00:47:16.291Z,27.33
2018-06-03T00:49:45.144Z,27.37
2018-06-03T00:52:13.240Z,25.60
2018-06-03T00:54:41.320Z,30.33
2018-06-03T00:57:11.853Z,24.20
2018-06-03T00:59:44.463Z,25.83
2018-06-03T01:02:13.470Z,24.80
2018-06-03T01:04:45.395Z,26.57
2018-06-03T01:07:13.504Z,28.17
2018-06-03T01:09:41.726Z,27.63
2018-06-03T01:12:11.465Z,27.40
2018-06-03T01:14:39.585Z,24.57
2018-06-03T01:17:08.445Z,28.53
2018-06-03T01:19:36.553Z,27.40
2018-06-03T01:22:05.644Z,27.93
2018-06-03T01:24:33.753Z,26.43
2018-06-03T01:27:01.984Z,27.53
2018-06-03T01:29:30.844Z,23.73
2018-06-03T01:31:58.945Z,26.20
2018-06-03T01:34:27.180Z,23.43
2018-06-03T01:36:55.284Z,23.90
2018-06-03T01:39:24.169Z,25.90
2018-06-03T01:41:52.512Z,26.63
2018-06-03T01:44:24.048Z,23.33
2018-06-03T01:46:52.164Z,23.83
2018-06-03T01:49:20.492Z,33.13
2018-06-03T01:51:48.811Z,22.93
2018-06-03T01:54:17.092Z,23.70
2018-06-03T01:56:45.217Z,25.63
2018-06-03T01:59:13.444Z,20.10
2018-06-03T02:01:41.534Z,20.33
2018-06-03T02:04:10.406Z,23.23
2018-06-03T02:06:38.489Z,19.80
2018-06-03T02:09:06.672Z,19.37
2018-06-03T02:11:34.808Z,23.50
2018-06-03T02:14:02.901Z,23.33
2018-06-03T02:16:31.204Z,29.37
2018-06-03T02:19:00.861Z,34.47
2018-06-03T02:21:28.960Z,27.10
2018-06-03T02:23:57.057Z,26.20
2018-06-03T02:26:25.928Z,27.90
2018-06-03T02:28:55.244Z,27.90
2018-06-03T02:31:24.164Z,24.37
2018-06-03T02:33:52.263Z,24.33
2018-06-03T02:36:20.384Z,29.83
2018-06-03T02:38:49.274Z,25.50
2018-06-03T02:41:18.122Z,25.13
2018-06-03T02:43:46.242Z,28.97
2018-06-03T02:46:14.351Z,23.30
2018-06-03T02:48:42.462Z,24.50
2018-06-03T02:51:10.562Z,25.37
2018-06-03T02:53:39.436Z,27.90
2018-06-03T02:56:07.568Z,25.60
2018-06-03T02:58:35.896Z,28.53
2018-06-03T03:01:03.975Z,28.13
2018-06-03T03:03:32.412Z,27.50
2018-06-03T03:06:00.510Z,28.00
2018-06-03T03:08:28.994Z,29.00
2018-06-03T03:10:57.429Z,29.63
2018-06-03T03:13:25.511Z,35.70
2018-06-03T03:15:53.705Z,31.30
2018-06-03T03:18:21.883Z,35.47
2018-06-03T03:20:50.007Z,48.07
2018-06-03T03:23:18.095Z,29.90
2018-06-03T03:25:46.171Z,31.87
2018-06-03T03:28:14.322Z,34.53
2018-06-03T03:30:45.784Z,26.97
2018-06-03T03:33:13.884Z,31.73
2018-06-03T03:35:41.984Z,64.40
2018-06-03T03:38:10.153Z,30.40
2018-06-03T03:40:38.300Z,25.53
2018-06-03T03:43:10.384Z,26.27
2018-06-03T03:45:38.467Z,30.67
2018-06-03T03:48:06.896Z,38.60
2018-06-03T03:50:34.995Z,31.87
2018-06-03T03:53:03.228Z,36.27
2018-06-03T03:55:31.540Z,32.20
2018-06-03T03:57:59.644Z,33.70
2018-06-03T04:00:27.753Z,28.90
2018-06-03T04:02:56.145Z,30.80
2018-06-03T04:05:25.036Z,29.13
2018-06-03T04:07:53.870Z,31.57
2018-06-03T04:10:22.341Z,31.77
2018-06-03T04:12:51.296Z,36.47
2018-06-03T04:15:19.689Z,38.07
2018-06-03T04:17:48.527Z,36.30
2018-06-03T04:20:16.635Z,32.70
2018-06-03T04:22:44.788Z,33.20
2018-06-03T04:25:13.788Z,43.53
2018-06-03T04:27:45.797Z,28.50
2018-06-03T04:30:14.013Z,30.83
2018-06-03T04:32:42.176Z,29.77
2018-06-03T04:35:10.416Z,29.70
2018-06-03T04:37:39.425Z,30.97
2018-06-03T04:40:07.499Z,29.07
2018-06-03T04:42:35.617Z,30.13
2018-06-03T04:45:03.715Z,34.07
2018-06-03T04:47:32.588Z,30.73
2018-06-03T04:50:00.761Z,31.33
2018-06-03T04:52:28.868Z,34.67
2018-06-03T04:54:57.714Z,31.73
2018-06-03T04:57:25.784Z,27.70
2018-06-03T04:59:53.877Z,34.30
2018-06-03T05:02:21.983Z,31.27
2018-06-03T05:04:50.100Z,37.43
2018-06-03T05:07:18.406Z,34.00
2018-06-03T05:09:46.502Z,41.20
2018-06-03T05:12:14.587Z,37.70
2018-06-03T05:14:42.673Z,40.17
2018-06-03T05:17:11.307Z,40.57
2018-06-03T05:19:39.413Z,47.47
2018-06-03T05:22:07.504Z,52.70
2018-06-03T05:24:35.613Z,55.13
2018-06-03T05:27:04.416Z,44.77
2018-06-03T05:29:35.972Z,44.47
2018-06-03T05:32:04.054Z,43.37
2018-06-03T05:34:32.156Z,50.50
2018-06-03T05:37:00.256Z,49.27
2018-06-03T05:39:28.401Z,55.53
2018-06-03T05:41:56.532Z,53.27
2018-06-03T05:44:24.630Z,58.53
2018-06-03T05:46:52.872Z,60.73
2018-06-03T05:49:21.017Z,62.47
2018-06-03T05:51:49.908Z,63.83
2018-06-03T05:54:19.242Z,67.50
2018-06-03T05:56:47.369Z,62.60
2018-06-03T05:59:15.465Z,69.17
2018-06-03T06:01:43.616Z,71.37
2018-06-03T06:04:12.001Z,71.57
2018-06-03T06:06:40.929Z,72.43
2018-06-03T06:09:09.013Z,77.53
2018-06-03T06:11:37.151Z,79.03
2018-06-03T06:14:05.271Z,79.20
2018-06-03T06:16:33.599Z,76.00
2018-06-03T06:19:01.707Z,78.57
2018-06-03T06:21:29.807Z,80.43
2018-06-03T06:23:57.924Z,86.77
2018-06-03T06:26:26.077Z,90.10
2018-06-03T06:28:54.159Z,85.53
2018-06-03T06:31:23.004Z,92.33
2018-06-03T06:33:51.702Z,91.07
2018-06-03T06:36:19.803Z,89.37
2018-06-03T06:38:47.917Z,87.07
2018-06-03T06:41:16.360Z,91.07
2018-06-03T06:43:45.213Z,89.53
2018-06-03T06:46:13.484Z,92.60
2018-06-03T06:48:41.636Z,92.57
2018-06-03T06:51:10.527Z,104.40
2018-06-03T06:53:38.615Z,99.57
2018-06-03T06:56:06.972Z,100.57
2018-06-03T06:58:35.046Z,88.87
2018-06-03T07:01:03.381Z,85.10
2018-06-03T07:03:31.463Z,87.33
2018-06-03T07:05:59.662Z,88.67
2018-06-03T07:08:27.760Z,89.87
2018-06-03T07:10:56.585Z,91.87
2018-06-03T07:13:24.663Z,91.23
2018-06-03T07:15:52.898Z,90.23
2018-06-03T07:18:20.968Z,84.80
2018-06-03T07:20:49.910Z,80.60
2018-06-03T07:23:18.209Z,75.23
2018-06-03T07:25:47.532Z,90.00
2018-06-03T07:28:15.636Z,84.70
2018-06-03T07:30:43.765Z,95.40
2018-06-03T07:33:11.936Z,79.10
2018-06-03T07:35:40.036Z,73.07
2018-06-03T07:38:11.825Z,86.20
2018-06-03T07:40:40.219Z,69.20
2018-06-03T07:43:08.312Z,70.83
2018-06-03T07:45:36.623Z,67.37
2018-06-03T07:48:05.004Z,54.10
2018-06-03T07:50:36.737Z,51.67
2018-06-03T07:53:05.005Z,43.70
2018-06-03T07:55:34.927Z,50.53
2018-06-03T07:58:03.008Z,51.93
2018-06-03T08:00:31.452Z,47.37
2018-06-03T08:02:59.936Z,37.43
2018-06-03T08:05:28.213Z,37.60
2018-06-03T08:07:56.304Z,46.97
2018-06-03T08:10:24.856Z,50.37
2018-06-03T08:12:52.986Z,54.60
2018-06-03T08:15:21.244Z,53.50
2018-06-03T08:17:49.416Z,58.40
2018-06-03T08:20:18.660Z,57.80
2018-06-03T08:22:46.822Z,59.07
2018-06-03T08:25:15.092Z,67.33
2018-06-03T08:27:43.384Z,71.10
2018-06-03T08:30:12.123Z,71.20
2018-06-03T08:32:41.161Z,68.63
2018-06-03T08:35:09.669Z,63.00
2018-06-03T08:37:38.570Z,70.13
2018-06-03T08:40:06.681Z,70.17
2018-06-03T08:42:34.982Z,69.50
2018-06-03T08:45:03.149Z,72.93
2018-06-03T08:47:31.516Z,73.13
2018-06-03T08:49:59.704Z,81.33
2018-06-03T08:52:27.888Z,72.43
2018-06-03T08:54:57.090Z,61.87
2018-06-03T08:57:25.188Z,66.23
2018-06-03T08:59:54.057Z,70.23
2018-06-03T09:05:01.527Z,72.00
2018-06-03T09:07:29.609Z,73.20
2018-06-03T09:09:58.521Z,66.57
2018-06-03T09:12:26.736Z,72.20
2018-06-03T09:14:54.892Z,69.63
2018-06-03T09:17:23.066Z,68.80
2018-06-03T09:19:51.207Z,69.70
2018-06-03T09:22:19.371Z,80.30
2018-06-03T09:24:48.465Z,79.33
2018-06-03T09:27:16.561Z,77.80
2018-06-03T09:29:45.721Z,72.00
2018-06-03T09:32:14.111Z,83.13
2018-06-03T09:34:42.322Z,76.17
2018-06-03T09:37:10.418Z,87.90
2018-06-03T09:39:39.520Z,83.47
2018-06-03T09:42:09.245Z,75.00
2018-06-03T09:44:37.529Z,80.40
2018-06-03T09:47:06.569Z,70.80
2018-06-03T09:49:34.703Z,73.07
2018-06-03T09:52:03.021Z,74.20
2018-06-03T09:54:32.122Z,74.07
2018-06-03T09:57:02.210Z,78.60
2018-06-03T09:59:33.057Z,68.77
2018-06-03T10:02:01.208Z,71.80
2018-06-03T10:04:29.561Z,71.80
2018-06-03T10:06:58.491Z,80.27
2018-06-03T10:09:28.428Z,68.03
2018-06-03T10:11:57.292Z,73.80
2018-06-03T10:14:25.455Z,73.63
2018-06-03T10:16:53.634Z,73.23
2018-06-03T10:19:22.633Z,70.53
2018-06-03T10:21:52.892Z,81.73
2018-06-03T10:24:22.911Z,78.40
2018-06-03T10:26:54.206Z,73.30
2018-06-03T10:29:23.834Z,65.17
2018-06-03T10:31:52.844Z,71.67
2018-06-03T10:34:22.954Z,62.93
2018-06-03T10:36:51.377Z,69.53
2018-06-03T10:39:20.889Z,65.27
2018-06-03T10:41:49.734Z,62.57
2018-06-03T10:44:18.940Z,56.70
2018-06-03T10:46:48.776Z,53.50
2018-06-03T10:49:16.996Z,56.80
2018-06-03T10:54:22.350Z,57.13
2018-06-03T10:56:52.457Z,59.20
2018-06-03T10:59:22.575Z,62.20
2018-06-03T11:01:52.316Z,55.40
2018-06-03T11:04:22.762Z,59.57
2018-06-03T11:06:53.943Z,58.13
2018-06-03T11:09:25.389Z,63.60
2018-06-03T11:11:56.622Z,62.77
2018-06-03T11:14:27.192Z,70.43
2018-06-03T11:16:56.616Z,65.97
2018-06-03T11:19:26.798Z,62.57
2018-06-03T11:21:57.150Z,69.30
2018-06-03T11:24:27.810Z,70.30
2018-06-03T11:26:58.335Z,69.93
2018-06-03T11:29:28.225Z,70.10
2018-06-03T11:31:58.409Z,74.53
2018-06-03T11:34:28.860Z,75.60
2018-06-03T11:36:58.821Z,66.33
2018-06-03T11:39:28.848Z,68.90
2018-06-03T11:41:59.013Z,67.67
2018-06-03T11:44:29.100Z,67.80
2018-06-03T11:47:00.058Z,68.73
2018-06-03T11:49:30.538Z,69.33
2018-06-03T11:52:00.505Z,68.53
2018-06-03T11:54:30.375Z,77.90
2018-06-03T11:57:04.808Z,74.37
2018-06-03T11:59:46.815Z,75.03
2018-06-03T12:02:17.801Z,72.20
2018-06-03T12:04:48.196Z,71.10
2018-06-03T12:07:18.665Z,69.17
2018-06-03T12:09:49.182Z,73.80
2018-06-03T12:12:19.013Z,62.27
2018-06-03T12:14:48.921Z,68.83
2018-06-03T12:17:19.098Z,74.70
2018-06-03T12:19:48.547Z,67.07
2018-06-03T12:22:18.041Z,71.13
2018-06-03T12:24:48.436Z,67.23
2018-06-03T12:27:20.157Z,67.77
2018-06-03T12:29:50.304Z,71.80
2018-06-03T12:32:22.484Z,67.67
2018-06-03T12:34:52.444Z,60.80
2018-06-03T12:37:22.324Z,69.83
2018-06-03T12:39:52.484Z,73.10
2018-06-03T12:42:23.852Z,85.90
2018-06-03T12:44:53.804Z,70.30
2018-06-03T12:47:23.490Z,64.40
2018-06-03T12:49:53.924Z,63.27
2018-06-03T12:52:25.199Z,59.70
2018-06-03T12:54:55.821Z,64.20
2018-06-03T12:57:25.721Z,61.70
2018-06-03T12:59:55.869Z,57.50
2018-06-03T13:02:25.853Z,63.90
2018-06-03T13:04:56.213Z,60.63
2018-06-03T13:07:27.624Z,65.50
2018-06-03T13:09:57.656Z,63.00
2018-06-03T13:12:28.566Z,59.90
2018-06-03T13:14:58.283Z,66.23
2018-06-03T13:17:27.997Z,57.77
2018-06-03T13:19:58.612Z,55.33
2018-06-03T13:22:28.424Z,54.17
2018-06-03T13:24:59.572Z,56.93
2018-06-03T13:27:29.500Z,51.03
2018-06-03T13:30:01.132Z,47.63
2018-06-03T13:32:33.248Z,53.60
2018-06-03T13:35:02.944Z,52.80
2018-06-03T13:37:34.259Z,56.23
2018-06-03T13:40:04.103Z,53.97
2018-06-03T13:42:34.937Z,43.43
2018-06-03T13:45:04.464Z,44.53
2018-06-03T13:47:34.580Z,42.50
2018-06-03T13:50:05.696Z,46.30
2018-06-03T13:52:36.848Z,52.23
2018-06-03T13:55:08.268Z,51.37
2018-06-03T13:57:40.377Z,50.93
2018-06-03T14:00:10.255Z,45.00
2018-06-03T14:02:40.834Z,43.13
2018-06-03T14:05:10.519Z,49.80
2018-06-03T14:07:40.985Z,50.43
2018-06-03T14:10:11.164Z,52.70
2018-06-03T14:12:41.988Z,55.00
2018-06-03T14:15:13.496Z,49.30
2018-06-03T14:17:58.945Z,44.50
2018-06-03T14:20:32.139Z,44.03
2018-06-03T14:23:02.957Z,48.00
2018-06-03T14:25:38.400Z,49.77
2018-06-03T14:28:12.240Z,53.73
2018-06-03T14:30:44.217Z,47.47
2018-06-03T14:33:16.884Z,48.90
2018-06-03T14:35:46.386Z,43.90
2018-06-03T14:38:18.325Z,46.50
2018-06-03T14:40:49.449Z,46.70
2018-06-03T14:43:24.544Z,45.40
2018-06-03T14:45:54.552Z,47.37
2018-06-03T14:48:24.451Z,44.23
2018-06-03T14:50:56.278Z,43.77
2018-06-03T14:53:30.376Z,48.77
2018-06-03T14:56:00.202Z,47.87
2018-06-03T14:58:30.404Z,43.37
2018-06-03T15:01:00.246Z,44.13
2018-06-03T15:03:30.795Z,45.83
2018-06-03T15:06:05.400Z,45.20
2018-06-03T15:08:36.733Z,44.93
2018-06-03T15:11:07.026Z,44.67
2018-06-03T15:13:40.550Z,40.97
2018-06-03T15:16:11.879Z,50.30
2018-06-03T15:18:43.376Z,42.00
2018-06-03T15:21:14.285Z,43.00
2018-06-03T15:23:50.421Z,39.60
2018-06-03T15:26:19.957Z,47.80
2018-06-03T15:28:54.419Z,40.40
2018-06-03T15:31:24.325Z,46.27
2018-06-03T15:33:54.969Z,41.43
2018-06-03T15:36:27.420Z,41.00
2018-06-03T15:38:56.944Z,44.40
2018-06-03T15:41:26.569Z,39.60
2018-06-03T15:43:56.576Z,39.77
2018-06-03T15:46:26.599Z,48.40
2018-06-03T15:48:58.373Z,40.50
2018-06-03T15:51:28.543Z,44.27
2018-06-03T15:54:01.484Z,43.30
2018-06-03T15:56:33.032Z,38.63
2018-06-03T15:59:02.879Z,41.90
2018-06-03T16:01:34.242Z,39.10
2018-06-03T16:04:05.156Z,35.13
2018-06-03T16:06:35.600Z,37.97
2018-06-03T16:09:11.673Z,36.33
2018-06-03T16:11:43.308Z,33.70
2018-06-03T16:14:17.974Z,33.20
2018-06-03T16:16:48.676Z,32.07
2018-06-03T16:19:18.523Z,35.47
2018-06-03T16:21:51.296Z,36.10
2018-06-03T16:24:21.182Z,39.90
2018-06-03T16:26:54.158Z,39.23
2018-06-03T16:29:24.029Z,29.73
2018-06-03T16:31:54.028Z,31.63
2018-06-03T16:34:24.072Z,30.57
2018-06-03T16:36:57.648Z,32.17
2018-06-03T16:39:29.844Z,27.90
2018-06-03T16:42:27.347Z,30.67
2018-06-03T16:44:59.418Z,29.47
2018-06-03T16:47:31.074Z,34.10
2018-06-03T16:50:01.588Z,29.93
2018-06-03T16:52:32.435Z,29.77
2018-06-03T16:55:03.113Z,28.20
2018-06-03T16:57:34.201Z,31.80
2018-06-03T17:00:06.325Z,26.87
2018-06-03T17:02:37.485Z,28.03
2018-06-03T17:05:08.072Z,30.23
2018-06-03T17:07:39.791Z,25.97
2018-06-03T17:10:09.628Z,28.77
2018-06-03T17:12:47.627Z,26.60
2018-06-03T17:15:18.354Z,26.23
2018-06-03T17:17:59.742Z,24.67
2018-06-03T17:20:30.233Z,27.93
2018-06-03T17:22:59.860Z,26.17
2018-06-03T17:25:31.027Z,26.90
2018-06-03T17:28:00.957Z,24.73
2018-06-03T17:30:31.961Z,21.83
2018-06-03T17:33:09.190Z,159.87
2018-06-03T17:35:38.881Z,125.07
2018-06-03T17:38:57.123Z,29.30
2018-06-03T17:41:27.508Z,42.83
2018-06-03T17:43:57.687Z,102.83
2018-06-03T17:46:29.345Z,28.10
2018-06-03T17:49:01.794Z,22.73
2018-06-03T17:51:34.797Z,57.03
2018-06-03T17:54:06.185Z,206.30
2018-06-03T17:56:36.466Z,40.90
2018-06-03T17:59:10.604Z,23.27
2018-06-03T18:01:44.143Z,23.27
2018-06-03T18:04:18.126Z,39.33
2018-06-03T18:06:48.970Z,29.40
2018-06-03T18:09:23.321Z,23.80
2018-06-03T18:11:54.627Z,22.83
2018-06-03T18:14:27.828Z,27.63
2018-06-03T18:17:00.565Z,26.27
2018-06-03T18:19:34.565Z,22.93
2018-06-03T18:22:05.105Z,22.43
2018-06-03T18:24:35.409Z,24.57
2018-06-03T18:27:08.740Z,21.37
2018-06-03T18:29:39.132Z,19.87
2018-06-03T18:32:14.716Z,18.30
2018-06-03T18:34:44.392Z,22.67
2018-06-03T18:37:14.210Z,18.67
2018-06-03T18:39:44.617Z,19.53
2018-06-03T18:42:15.261Z,18.17
2018-06-03T18:44:45.236Z,18.33
2018-06-03T18:47:15.315Z,19.03
2018-06-03T18:49:45.073Z,17.90
2018-06-03T18:52:16.325Z,17.50
2018-06-03T18:54:46.330Z,19.00
2018-06-03T18:57:16.616Z,18.07
2018-06-03T18:59:46.947Z,19.60
2018-06-03T19:02:16.780Z,17.67
2018-06-03T19:04:50.855Z,22.00
2018-06-03T19:07:21.069Z,20.57
2018-06-03T19:09:51.468Z,16.10
2018-06-03T19:12:21.466Z,18.03
2018-06-03T19:14:52.472Z,17.53
2018-06-03T19:17:22.696Z,18.97
2018-06-03T19:19:52.656Z,19.90
2018-06-03T19:22:22.516Z,18.43
2018-06-03T19:24:54.896Z,19.57
2018-06-03T19:27:24.607Z,20.13
2018-06-03T19:29:55.007Z,20.97
2018-06-03T19:32:25.708Z,20.93
2018-06-03T19:34:55.484Z,20.97
2018-06-03T19:37:25.345Z,20.37
2018-06-03T19:39:55.412Z,23.27
2018-06-03T19:42:26.607Z,20.87
2018-06-03T19:44:56.471Z,23.20
2018-06-03T19:47:28.701Z,22.70
2018-06-03T19:49:59.992Z,20.40
2018-06-03T19:52:30.304Z,17.70
2018-06-03T19:55:00.017Z,21.33
2018-06-03T19:57:31.931Z,23.07
2018-06-03T20:00:02.293Z,18.40
2018-06-03T20:02:32.509Z,22.47
2018-06-03T20:05:02.953Z,19.93
2018-06-03T20:07:33.936Z,22.30
2018-06-03T20:10:03.777Z,19.93
2018-06-03T20:12:36.928Z,20.17
2018-06-03T20:15:06.750Z,17.77
2018-06-03T20:17:37.712Z,18.03
2018-06-03T20:20:08.712Z,19.60
2018-06-03T20:22:38.658Z,20.40
2018-06-03T20:25:09.271Z,22.87
2018-06-03T20:27:39.835Z,20.87
2018-06-03T20:30:10.567Z,25.70
2018-06-03T20:32:40.264Z,19.13
2018-06-03T20:35:10.061Z,20.30
2018-06-03T20:37:40.348Z,21.60
2018-06-03T20:40:10.483Z,21.20
2018-06-03T20:42:40.828Z,17.53
2018-06-03T20:45:11.755Z,20.83
2018-06-03T20:47:41.981Z,24.70
2018-06-03T20:50:13.631Z,31.50
2018-06-03T20:52:45.657Z,19.17
2018-06-03T20:55:16.931Z,19.87
2018-06-03T20:57:48.237Z,23.13
2018-06-03T21:00:19.289Z,18.33
2018-06-03T21:02:49.809Z,17.07
2018-06-03T21:05:20.129Z,18.60
2018-06-03T21:07:50.075Z,16.73
2018-06-03T21:10:21.435Z,21.80
2018-06-03T21:12:50.937Z,16.90
2018-06-03T21:15:20.865Z,18.80
2018-06-03T21:17:50.340Z,18.27
2018-06-03T21:20:20.352Z,17.03
2018-06-03T21:22:50.488Z,20.83
2018-06-03T21:25:21.652Z,19.73
2018-06-03T21:27:51.804Z,18.27
2018-06-03T21:30:21.691Z,26.83
2018-06-03T21:32:51.654Z,18.00
2018-06-03T21:35:23.539Z,18.53
2018-06-03T21:37:53.743Z,17.53
2018-06-03T21:40:23.409Z,15.53
2018-06-03T21:42:53.597Z,18.43
2018-06-03T21:45:24.243Z,23.23
2018-06-03T21:47:54.196Z,16.63
2018-06-03T21:50:25.397Z,17.80
2018-06-03T21:52:55.228Z,16.33
2018-06-03T21:55:25.436Z,17.67
2018-06-03T21:57:56.161Z,15.60
2018-06-03T22:00:33.504Z,15.73
2018-06-03T22:03:05.963Z,17.20
2018-06-03T22:05:35.639Z,15.40
2018-06-03T22:08:05.485Z,20.83
2018-06-03T22:10:35.739Z,19.97
2018-06-03T22:13:05.556Z,18.27
2018-06-03T22:15:35.588Z,17.40
2018-06-03T22:18:05.321Z,16.70
2018-06-03T22:20:35.687Z,22.60
2018-06-03T22:23:06.781Z,20.63
2018-06-03T22:25:36.851Z,17.97
2018-06-03T22:28:07.175Z,14.80
2018-06-03T22:30:40.875Z,17.70
2018-06-03T22:33:11.312Z,14.33
2018-06-03T22:35:41.910Z,17.40
2018-06-03T22:38:12.044Z,19.70
2018-06-03T22:40:44.121Z,20.03
2018-06-03T22:43:14.147Z,14.77
2018-06-03T22:45:44.283Z,14.30
2018-06-03T22:48:14.596Z,15.23
2018-06-03T22:50:44.807Z,15.87
2018-06-03T22:53:15.945Z,15.50
2018-06-03T22:55:45.814Z,15.93
2018-06-03T22:58:17.671Z,14.60
2018-06-03T23:00:47.660Z,17.40
2018-06-03T23:03:17.458Z,14.77
2018-06-03T23:05:46.869Z,15.70
2018-06-03T23:08:16.845Z,19.77
2018-06-03T23:10:47.408Z,14.23
2018-06-03T23:13:17.755Z,15.50
2018-06-03T23:15:47.947Z,16.20
2018-06-03T23:18:18.181Z,15.97
2018-06-03T23:20:48.413Z,18.53
2018-06-03T23:23:18.732Z,15.70
2018-06-03T23:25:49.308Z,17.80
2018-06-03T23:28:19.180Z,16.97
2018-06-03T23:30:48.909Z,17.33
2018-06-03T23:33:19.167Z,17.50
2018-06-03T23:35:49.081Z,13.10
2018-06-03T23:38:18.529Z,13.70
2018-06-03T23:40:48.537Z,16.00
2018-06-03T23:43:18.395Z,20.43
2018-06-03T23:45:48.022Z,16.53
2018-06-03T23:48:17.827Z,17.50
2018-06-03T23:50:47.985Z,15.50
2018-06-03T23:53:17.680Z,16.23
2018-06-03T23:55:47.351Z,13.60
2018-06-03T23:58:17.574Z,13.23
